Time;durP1;ratioP1;P1;durP2;ratioP2;P2;SDS_P1;SDS_P2;PMS_P1;PMS_P2;Temp;Humidity;BMP_temperature;BMP_pressure;BME280_temperature;BME280_humidity;BME280_pressure;Samples;Min_cycle;Max_cycle;Signal;HPM_P1;HPM_P2
2022/04/21 00:01:17;;;;;;;8.30;4.92;;;;;;;7.40;67.95;99790.39;1648065;85;21052;-53
2022/04/21 00:03:44;;;;;;;7.67;4.72;;;;;;;7.36;67.96;99792.86;1711155;81;21078;-52
2022/04/21 00:06:13;;;;;;;9.78;5.30;;;;;;;7.33;68.03;99792.63;1673668;84;21603;-52
2022/04/21 00:08:41;;;;;;;9.03;5.72;;;;;;;7.39;68.00;99783.47;1726690;82;21422;-52
2022/04/21 00:11:07;;;;;;;9.58;5.37;;;;;;;7.44;68.12;99783.47;1701999;82;21063;-52
2022/04/21 00:13:36;;;;;;;9.50;5.80;;;;;;;7.48;68.05;99784.55;1714532;81;21102;-52
2022/04/21 00:16:07;;;;;;;7.20;4.58;;;;;;;7.46;68.13;99782.05;1709349;82;21027;-52
2022/04/21 00:18:35;;;;;;;9.90;4.60;;;;;;;7.42;68.13;99785.38;1708873;82;21091;-53
2022/04/21 00:21:02;;;;;;;8.35;5.75;;;;;;;7.37;68.20;99783.59;1719190;81;21032;-52
2022/04/21 00:23:29;;;;;;;9.95;5.72;;;;;;;7.36;68.36;99790.24;1731155;81;21032;-53
2022/04/21 00:25:59;;;;;;;9.65;5.85;;;;;;;7.32;68.34;99787.52;1714335;82;21075;-53
2022/04/21 00:28:32;;;;;;;10.20;5.92;;;;;;;7.24;68.35;99788.08;1706653;84;21043;-52
2022/04/21 00:30:58;;;;;;;9.40;4.87;;;;;;;7.20;68.49;99785.35;1730354;81;21161;-53
2022/04/21 00:33:25;;;;;;;10.28;5.28;;;;;;;7.20;68.43;99783.56;1727531;81;21068;-53
2022/04/21 00:35:51;;;;;;;9.13;6.10;;;;;;;7.24;68.52;99782.84;1719246;82;21039;-53
2022/04/21 00:38:19;;;;;;;8.13;5.35;;;;;;;7.24;68.52;99775.82;1706911;84;20996;-53
2022/04/21 00:40:49;;;;;;;9.83;5.78;;;;;;;7.22;68.69;99777.73;1718612;82;21568;-53
2022/04/21 00:43:16;;;;;;;9.50;5.30;;;;;;;7.19;68.72;99771.41;1728239;81;21062;-53
2022/04/21 00:45:44;;;;;;;8.70;5.40;;;;;;;7.16;68.88;99772.98;1671977;84;22187;-52
2022/04/21 00:48:10;;;;;;;8.55;5.75;;;;;;;7.12;68.88;99772.83;1712577;82;21469;-53
2022/04/21 00:50:37;;;;;;;9.00;5.42;;;;;;;7.06;68.75;99768.05;1665383;82;22149;-53
2022/04/21 00:53:04;;;;;;;8.18;5.22;;;;;;;7.00;68.80;99773.28;1735907;82;21059;-53
2022/04/21 00:55:31;;;;;;;9.50;5.42;;;;;;;6.98;68.86;99764.72;1719393;82;21107;-53
2022/04/21 00:57:58;;;;;;;8.33;4.80;;;;;;;7.04;68.86;99756.87;1707489;82;21705;-53
2022/04/21 01:00:24;;;;;;;9.75;5.33;;;;;;;7.08;68.81;99762.25;1721533;81;21039;-52
2022/04/21 01:02:53;;;;;;;10.05;5.97;;;;;;;7.12;68.77;99754.52;1726238;82;21032;-53
2022/04/21 01:05:28;;;;;;;8.60;5.30;;;;;;;7.13;68.74;99754.03;1724093;82;21537;-53
2022/04/21 01:08:04;;;;;;;7.83;4.70;;;;;;;7.10;68.66;99748.58;1667817;83;21132;-53
2022/04/21 01:10:38;;;;;;;8.38;5.55;;;;;;;7.05;68.70;99748.09;1682545;83;21161;-53
2022/04/21 01:13:06;;;;;;;10.78;6.10;;;;;;;7.01;68.80;99747.95;1692263;84;21105;-53
2022/04/21 01:15:38;;;;;;;8.13;5.67;;;;;;;6.95;68.86;99748.43;1676039;83;21138;-53
2022/04/21 01:18:06;;;;;;;9.05;5.17;;;;;;;6.89;68.99;99744.47;1666428;83;21177;-52
2022/04/21 01:20:34;;;;;;;9.53;5.70;;;;;;;6.87;69.05;99741.97;1671690;83;21572;-53
2022/04/21 01:23:02;;;;;;;8.38;4.85;;;;;;;6.93;68.98;99748.55;1693423;84;21393;-53
2022/04/21 01:25:41;;;;;;;8.95;4.97;;;;;;;6.97;68.92;99745.22;1692451;84;21567;-52
2022/04/21 01:28:10;;;;;;;9.83;5.45;;;;;;;7.00;69.03;99748.44;1683282;83;22009;-52
2022/04/21 01:30:38;;;;;;;9.73;5.25;;;;;;;6.99;68.94;99741.55;1668010;83;21055;-53
2022/04/21 01:33:08;;;;;;;10.18;6.58;;;;;;;6.96;68.90;99743.09;1680696;83;21146;-53
2022/04/21 01:35:35;;;;;;;8.48;5.60;;;;;;;6.92;69.04;99742.12;1682790;83;21119;-52
2022/04/21 01:43:37;;;;;;;7.90;5.10;;;;;;;6.82;69.31;99729.72;1685428;83;21078;-53
2022/04/21 01:46:04;;;;;;;10.70;6.10;;;;;;;6.92;69.21;99734.27;1688830;83;21822;-52
2022/04/21 01:48:32;;;;;;;10.30;5.90;;;;;;;6.95;69.09;99729.64;1690729;83;21102;-53
2022/04/21 01:51:00;;;;;;;10.05;5.60;;;;;;;7.00;69.10;99736.66;1685277;84;22457;-53
2022/04/21 01:53:27;;;;;;;8.95;5.92;;;;;;;7.02;69.10;99736.55;1686499;84;21114;-53
2022/04/21 01:55:53;;;;;;;9.85;5.90;;;;;;;7.03;69.08;99735.13;1684964;83;21136;-52
2022/04/21 01:58:21;;;;;;;8.10;5.60;;;;;;;7.03;68.96;99739.53;1686169;83;21054;-53
2022/04/21 02:00:49;;;;;;;9.15;5.22;;;;;;;7.03;68.98;99735.61;1691775;84;21729;-53
2022/04/21 02:03:15;;;;;;;10.72;6.37;;;;;;;7.01;68.93;99734.87;1694115;84;21059;-52
2022/04/21 02:05:42;;;;;;;9.05;6.05;;;;;;;6.99;68.88;99734.16;1688283;83;21098;-53
2022/04/21 02:08:08;;;;;;;8.63;4.65;;;;;;;6.97;68.80;99730.34;1689352;84;21153;-53
2022/04/21 02:10:36;;;;;;;9.93;5.62;;;;;;;7.01;68.70;99727.02;1680522;84;21020;-53
2022/04/21 02:13:04;;;;;;;9.35;5.72;;;;;;;7.06;68.71;99720.52;1680917;84;21168;-53
2022/04/21 02:15:32;;;;;;;9.93;6.12;;;;;;;7.12;68.58;99727.05;1686854;84;21151;-53
2022/04/21 02:18:01;;;;;;;8.90;6.00;;;;;;;7.12;68.67;99726.22;1680366;84;21034;-53
2022/04/21 02:22:29;;;;;;;8.38;5.72;;;;;;;7.20;68.56;99726.00;1789504;79;22764;-52
2022/04/21 02:24:56;;;;;;;10.98;6.28;;;;;;;7.15;68.50;99724.69;1763623;81;21023;-53
2022/04/21 02:27:23;;;;;;;9.55;6.10;;;;;;;7.14;68.59;99729.06;1763225;80;21779;-52
2022/04/21 02:29:52;;;;;;;9.75;6.75;;;;;;;7.12;68.58;99719.20;1739592;80;21495;-53
2022/04/21 02:32:19;;;;;;;11.45;6.08;;;;;;;7.10;68.62;99719.80;1761538;80;21052;-52
2022/04/21 02:34:46;;;;;;;8.58;5.67;;;;;;;7.16;68.57;99720.65;1756720;81;21021;-53
2022/04/21 02:37:14;;;;;;;8.28;5.42;;;;;;;7.24;68.28;99716.12;1760667;80;21040;-53
2022/04/21 02:39:40;;;;;;;8.25;5.08;;;;;;;7.28;68.08;99720.64;1760878;80;21151;-53
2022/04/21 02:42:09;;;;;;;9.85;6.20;;;;;;;7.32;68.04;99715.55;1765846;79;20949;-53
2022/04/21 02:44:38;;;;;;;10.65;6.12;;;;;;;7.33;67.97;99717.19;1762699;81;21631;-53
2022/04/21 02:47:11;;;;;;;10.35;6.33;;;;;;;7.35;68.00;99729.70;1763206;79;21036;-53
2022/04/21 02:49:37;;;;;;;10.13;6.08;;;;;;;7.36;67.86;99719.58;1759983;80;21037;-53
2022/04/21 02:52:07;;;;;;;10.05;6.20;;;;;;;7.37;67.75;99730.41;1767337;80;21098;-53
2022/04/21 02:57:20;;;;;;;9.70;6.12;;;;;;;7.32;67.46;99725.53;1762074;80;21094;-53
2022/04/21 02:59:53;;;;;;;9.85;5.92;;;;;;;7.30;67.37;99724.81;1764091;81;21044;-53
2022/04/21 03:02:21;;;;;;;10.70;6.62;;;;;;;7.30;67.27;99720.89;1761002;80;21047;-54
2022/04/21 03:04:51;;;;;;;10.18;6.00;;;;;;;7.34;66.99;99719.69;1762499;79;21033;-53
2022/04/21 03:07:18;;;;;;;10.78;6.55;;;;;;;7.36;66.91;99724.81;1756298;79;21040;-53
2022/04/21 03:09:47;;;;;;;10.15;6.85;;;;;;;7.40;66.90;99727.56;1765302;81;21095;-53
2022/04/21 03:12:13;;;;;;;12.07;7.50;;;;;;;7.39;66.83;99719.34;1758617;79;20980;-53
2022/04/21 03:14:40;;;;;;;11.57;6.85;;;;;;;7.38;66.75;99718.52;1765865;80;21740;-53
2022/04/21 03:17:09;;;;;;;10.45;6.47;;;;;;;7.37;66.54;99719.95;1716776;81;21109;-53
2022/04/21 03:19:36;;;;;;;9.73;6.35;;;;;;;7.32;66.39;99717.67;1686440;85;21082;-53
2022/04/21 03:24:49;;;;;;;12.28;5.90;;;;;;;7.25;66.52;99726.47;1700988;82;21009;-53
2022/04/21 03:27:16;;;;;;;9.03;5.95;;;;;;;7.20;66.53;99724.69;1745495;81;21094;-53
2022/04/21 03:29:43;;;;;;;8.40;5.12;;;;;;;7.15;66.56;99726.00;1728951;81;21160;-53
2022/04/21 03:32:13;;;;;;;10.93;5.70;;;;;;;7.14;66.52;99726.45;1749951;80;21091;-53
2022/04/21 03:34:42;;;;;;;9.30;5.28;;;;;;;7.20;66.37;99726.00;1756923;81;21052;-53
2022/04/21 03:37:13;;;;;;;9.50;4.95;;;;;;;7.26;66.33;99729.91;1738607;80;21078;-53
2022/04/21 03:39:41;;;;;;;9.10;5.70;;;;;;;7.30;66.43;99725.30;1749468;81;21059;-53
2022/04/21 03:42:24;;;;;;;7.95;5.10;;;;;;;7.33;66.26;99729.82;1740187;80;21128;-53
2022/04/21 03:44:51;;;;;;;8.18;4.67;;;;;;;7.33;66.11;99727.20;1751909;80;21043;-52
2022/04/21 03:47:20;;;;;;;8.78;5.05;;;;;;;7.30;65.79;99730.54;1753889;80;21036;-54
2022/04/21 03:49:47;;;;;;;9.80;5.22;;;;;;;7.23;65.80;99730.17;1734934;81;21056;-54
2022/04/21 03:52:14;;;;;;;8.30;5.67;;;;;;;7.18;65.89;99729.20;1753078;81;21115;-54
2022/04/21 03:54:40;;;;;;;7.85;4.78;;;;;;;7.16;65.90;99727.19;1757209;81;21087;-53
2022/04/21 03:57:07;;;;;;;9.30;5.58;;;;;;;7.12;65.88;99731.45;1746201;80;21047;-53
2022/04/21 03:59:35;;;;;;;10.18;5.33;;;;;;;7.04;65.92;99730.72;1739068;80;21035;-51
2022/04/21 04:02:03;;;;;;;7.75;4.83;;;;;;;7.05;66.04;99733.70;1750279;81;21032;-52
2022/04/21 04:04:32;;;;;;;7.60;4.47;;;;;;;7.08;65.76;99729.55;1742934;80;21077;-51
2022/04/21 04:12:31;;;;;;;8.78;6.35;;;;;;;7.12;65.98;99736.20;1751105;81;21004;-52
2022/04/21 04:14:59;;;;;;;10.80;6.65;;;;;;;7.10;65.86;99734.67;1752868;80;21027;-53
2022/04/21 04:17:27;;;;;;;12.43;7.42;;;;;;;7.06;65.91;99732.73;1754076;81;20992;-53
2022/04/21 04:19:55;;;;;;;11.90;6.75;;;;;;;7.06;65.95;99732.73;1753192;80;21142;-52
2022/04/21 04:22:24;;;;;;;13.43;8.38;;;;;;;7.04;65.91;99732.03;1699743;82;21005;-52
2022/04/21 04:24:54;;;;;;;11.08;7.30;;;;;;;7.04;65.94;99735.95;1749958;80;21050;-52
2022/04/21 04:27:24;;;;;;;11.68;7.30;;;;;;;7.01;65.88;99739.65;1754514;80;21089;-52
2022/04/21 04:29:50;;;;;;;10.00;6.35;;;;;;;6.99;65.88;99735.47;1752876;80;21515;-52
2022/04/21 04:32:18;;;;;;;10.95;6.45;;;;;;;7.03;65.92;99741.66;1741679;80;21015;-53
2022/04/21 04:34:45;;;;;;;10.23;6.00;;;;;;;7.08;65.98;99741.33;1754444;80;21541;-52
2022/04/21 04:37:12;;;;;;;10.70;5.55;;;;;;;7.13;65.99;99738.34;1750743;81;21493;-52
2022/04/21 04:39:39;;;;;;;9.60;5.92;;;;;;;7.17;66.07;99737.17;1726391;80;21027;-53
2022/04/21 04:42:23;;;;;;;9.30;6.08;;;;;;;7.22;66.08;99732.42;1746991;81;21493;-53
2022/04/21 04:46:34;;;;;;;10.48;6.80;;;;;;;7.26;66.07;99735.14;1753514;80;21533;-51
2022/04/21 04:47:19;;;;;;;11.60;6.40;;;;;;;7.29;65.87;99736.71;1739106;81;21556;-54
2022/04/21 04:49:46;;;;;;;9.40;6.17;;;;;;;7.28;65.81;99733.72;1752906;81;21528;-52
2022/04/21 04:52:13;;;;;;;13.70;6.10;;;;;;;7.28;65.71;99737.65;1716328;81;21032;-53
2022/04/21 04:54:39;;;;;;;11.33;6.37;;;;;;;7.24;65.78;99740.50;1755392;80;21016;-52
2022/04/21 04:57:06;;;;;;;8.65;5.58;;;;;;;7.24;65.85;99737.88;1732369;80;21114;-53
2022/04/21 04:59:34;;;;;;;8.88;5.58;;;;;;;7.34;65.81;99742.42;1728866;80;21035;-52
2022/04/21 05:02:02;;;;;;;12.53;6.12;;;;;;;7.42;65.70;99737.44;1742773;80;21748;-52
2022/04/21 05:04:31;;;;;;;8.78;5.75;;;;;;;7.46;65.42;99733.61;1746382;80;21058;-52
2022/04/21 05:06:58;;;;;;;10.58;6.47;;;;;;;7.47;65.55;99743.14;1737423;81;21564;-52
2022/04/21 05:09:26;;;;;;;9.60;6.25;;;;;;;7.47;65.68;99737.91;1753209;80;21048;-52
2022/04/21 05:11:55;;;;;;;8.73;5.65;;;;;;;7.49;65.71;99741.72;1740795;81;21608;-53
2022/04/21 05:14:23;;;;;;;9.60;6.10;;;;;;;7.48;65.67;99736.97;1739176;80;21060;-52
2022/04/21 05:16:49;;;;;;;10.75;7.25;;;;;;;7.50;65.69;99736.83;1751531;80;21060;-52
2022/04/21 05:19:19;;;;;;;11.25;6.40;;;;;;;7.50;65.69;99736.37;1743764;81;21558;-52
2022/04/21 05:21:48;;;;;;;11.30;6.30;;;;;;;7.51;65.60;99740.63;1755350;80;21068;-52
2022/04/21 05:24:16;;;;;;;8.55;5.78;;;;;;;7.54;65.53;99743.02;1756993;81;21110;-52
2022/04/21 05:26:48;;;;;;;9.50;6.00;;;;;;;7.61;65.34;99738.97;1744811;81;21056;-52
2022/04/21 05:32:04;;;;;;;11.22;6.50;;;;;;;7.77;65.38;99749.58;1744846;80;21043;-52
2022/04/21 05:34:31;;;;;;;9.55;5.83;;;;;;;7.82;65.27;99747.42;1748972;80;21704;-51
2022/04/21 05:36:59;;;;;;;10.55;6.55;;;;;;;7.87;65.21;99743.11;1752878;80;21808;-52
2022/04/21 05:39:28;;;;;;;11.53;7.20;;;;;;;7.91;65.12;99754.55;1757351;81;21027;-51
2022/04/21 05:41:57;;;;;;;10.88;6.55;;;;;;;7.91;64.95;99755.03;1753005;81;21087;-52
2022/04/21 05:44:25;;;;;;;11.30;6.58;;;;;;;7.89;64.96;99754.33;1747545;80;21023;-52
2022/04/21 05:46:54;;;;;;;12.28;7.80;;;;;;;7.86;65.01;99751.45;1751486;81;21024;-52
2022/04/21 05:49:22;;;;;;;14.63;8.00;;;;;;;7.79;65.06;99751.10;1745934;81;21067;-51
2022/04/21 05:51:52;;;;;;;11.08;7.28;;;;;;;7.73;65.26;99750.30;1746260;80;21051;-52
2022/04/21 05:54:19;;;;;;;11.60;6.83;;;;;;;7.77;65.41;99758.25;1755483;81;21001;-51
2022/04/21 05:56:48;;;;;;;10.50;6.85;;;;;;;7.88;65.39;99756.58;1709271;81;21444;-52
2022/04/21 05:59:15;;;;;;;10.18;7.22;;;;;;;7.95;65.42;99747.27;1754670;80;21907;-52
2022/04/21 06:01:42;;;;;;;11.93;7.50;;;;;;;8.03;65.47;99753.22;1756444;80;21048;-52
2022/04/21 06:04:09;;;;;;;11.90;7.35;;;;;;;8.08;65.39;99749.76;1736301;81;21481;-53
2022/04/21 06:06:39;;;;;;;12.73;7.75;;;;;;;8.11;65.42;99750.83;1740873;80;21030;-52
2022/04/21 06:09:05;;;;;;;12.07;7.92;;;;;;;8.18;65.43;99754.61;1756262;80;21031;-52
2022/04/21 06:11:34;;;;;;;12.80;8.00;;;;;;;8.22;65.24;99752.13;1757487;81;21225;-52
2022/04/21 06:14:01;;;;;;;12.33;7.42;;;;;;;8.25;64.96;99752.34;1755621;80;21036;-53
2022/04/21 06:16:29;;;;;;;11.33;7.20;;;;;;;8.26;64.97;99756.14;1747705;80;21044;-52
2022/04/21 06:18:57;;;;;;;11.55;7.30;;;;;;;8.30;65.04;99754.11;1725441;80;21435;-52
2022/04/21 06:21:25;;;;;;;14.10;7.60;;;;;;;8.34;64.80;99755.05;1739909;80;21079;-53
2022/04/21 06:23:52;;;;;;;9.90;6.85;;;;;;;8.44;64.74;99752.56;1747584;80;21280;-52
2022/04/21 06:26:19;;;;;;;12.23;7.10;;;;;;;8.57;64.60;99757.61;1734709;81;21048;-52
2022/04/21 06:28:47;;;;;;;12.20;7.83;;;;;;;8.65;64.33;99757.83;1740805;80;21075;-52
2022/04/21 06:31:13;;;;;;;12.07;8.08;;;;;;;8.69;64.14;99757.09;1754757;80;21528;-52
2022/04/21 06:33:40;;;;;;;13.08;8.00;;;;;;;8.70;64.11;99756.97;1742743;81;21146;-53
2022/04/21 06:36:07;;;;;;;13.20;8.53;;;;;;;8.72;63.94;99759.01;1751211;80;21164;-52
2022/04/21 06:38:35;;;;;;;11.80;7.97;;;;;;;8.71;63.95;99758.64;1746674;80;21038;-52
2022/04/21 06:41:02;;;;;;;15.55;9.70;;;;;;;8.66;63.81;99757.37;1749746;81;21021;-51
2022/04/21 06:49:03;;;;;;;14.40;9.25;;;;;;;8.68;64.00;99761.52;1736043;81;21689;-52
2022/04/21 06:51:31;;;;;;;12.75;8.90;;;;;;;8.73;63.81;99765.90;1748442;80;21115;-52
2022/04/21 06:53:57;;;;;;;13.13;9.33;;;;;;;8.84;63.67;99764.17;1752018;81;21075;-53
2022/04/21 06:56:25;;;;;;;13.75;9.70;;;;;;;8.96;63.84;99770.20;1744508;81;21079;-52
2022/04/21 06:58:51;;;;;;;15.98;10.63;;;;;;;9.08;63.67;99769.20;1743697;81;21011;-52
2022/04/21 07:01:19;;;;;;;16.65;10.72;;;;;;;9.18;63.21;99775.34;1739292;82;20895;-52
2022/04/21 07:03:47;;;;;;;17.62;11.60;;;;;;;9.23;63.13;99773.16;1750428;81;20976;-52
2022/04/21 07:06:14;;;;;;;17.27;10.18;;;;;;;9.32;63.05;99767.61;1738031;80;21016;-53
2022/04/21 07:08:41;;;;;;;13.60;9.23;;;;;;;9.41;63.12;99775.17;1751336;80;20969;-52
2022/04/21 07:11:07;;;;;;;14.95;9.60;;;;;;;9.46;63.02;99770.36;1729892;80;21075;-52
2022/04/21 07:13:36;;;;;;;14.03;9.58;;;;;;;9.49;62.84;99774.87;1731156;80;21667;-52
2022/04/21 07:16:02;;;;;;;15.53;9.25;;;;;;;9.51;62.68;99779.17;1747196;80;21056;-53
2022/04/21 07:18:30;;;;;;;14.25;9.20;;;;;;;9.51;62.40;99780.48;1737659;80;21110;-58
2022/04/21 07:20:57;;;;;;;14.75;10.05;;;;;;;9.45;62.18;99782.67;1743163;80;21046;-53
2022/04/21 07:23:24;;;;;;;13.70;10.25;;;;;;;9.41;62.09;99786.50;1748534;81;21079;-53
2022/04/21 07:25:52;;;;;;;16.20;9.95;;;;;;;9.34;61.95;99784.55;1754597;79;21036;-53
2022/04/21 07:28:19;;;;;;;15.75;9.20;;;;;;;9.29;62.13;99779.67;1752200;80;21011;-52
2022/04/21 07:30:46;;;;;;;14.65;9.43;;;;;;;9.33;61.91;99784.18;1733884;81;21110;-53
2022/04/21 07:33:14;;;;;;;14.70;8.83;;;;;;;9.33;61.79;99783.72;1758200;81;21035;-53
2022/04/21 07:35:41;;;;;;;12.30;9.00;;;;;;;9.36;61.88;99789.17;1733941;81;21216;-53
2022/04/21 07:38:09;;;;;;;11.70;8.03;;;;;;;9.34;61.90;99785.37;1688450;83;22041;-53
2022/04/21 07:40:38;;;;;;;13.95;9.10;;;;;;;9.35;61.85;99790.98;1745181;81;21548;-52
2022/04/21 07:43:08;;;;;;;15.18;10.05;;;;;;;9.33;61.80;99798.62;1750642;81;21000;-52
2022/04/21 07:45:38;;;;;;;12.00;8.20;;;;;;;9.26;61.91;99796.53;1748322;81;22429;-53
2022/04/21 07:48:06;;;;;;;17.87;9.65;;;;;;;9.23;61.93;99796.78;1750557;79;21018;-52
2022/04/21 07:50:33;;;;;;;12.82;8.83;;;;;;;9.18;62.03;99804.67;1758794;81;21173;-52
2022/04/21 07:53:14;;;;;;;11.78;7.47;;;;;;;9.11;62.22;99806.52;1754235;79;21066;-52
2022/04/21 07:55:46;;;;;;;13.38;8.70;;;;;;;9.06;62.35;99807.38;1754835;81;21039;-53
2022/04/21 07:58:14;;;;;;;12.37;8.63;;;;;;;8.99;62.37;99805.38;1752442;80;21023;-52
2022/04/21 08:00:41;;;;;;;12.03;7.87;;;;;;;8.96;62.73;99813.04;1757228;81;21076;-53
2022/04/21 08:03:07;;;;;;;13.58;7.83;;;;;;;8.99;62.79;99810.13;1704733;82;21152;-52
2022/04/21 08:05:34;;;;;;;10.95;7.58;;;;;;;9.02;62.75;99810.37;1755318;81;21106;-52
2022/04/21 08:08:03;;;;;;;12.68;7.83;;;;;;;9.10;62.73;99811.40;1756161;79;21095;-52
2022/04/21 08:10:30;;;;;;;13.25;8.85;;;;;;;9.22;62.60;99813.97;1758360;81;21522;-52
2022/04/21 08:12:59;;;;;;;11.18;7.10;;;;;;;9.30;62.47;99813.67;1757200;79;21466;-53
2022/04/21 08:15:35;;;;;;;12.70;7.78;;;;;;;9.34;62.42;99816.05;1757933;79;21145;-52
2022/04/21 08:18:04;;;;;;;11.55;7.55;;;;;;;9.37;62.26;99819.73;1706291;82;21094;-52
2022/04/21 08:20:32;;;;;;;11.50;7.10;;;;;;;9.34;61.97;99822.12;1752227;81;21546;-51
2022/04/21 08:22:59;;;;;;;14.93;8.28;;;;;;;9.30;61.83;99825.98;1758658;79;21508;-52
2022/04/21 08:33:45;;;;;;;11.78;7.15;;;;;;;9.13;62.25;99833.09;1755919;79;21058;-52
2022/04/21 08:36:12;;;;;;;10.45;6.90;;;;;;;9.07;62.29;99836.58;1753462;80;20988;-52
2022/04/21 08:38:40;;;;;;;10.08;6.22;;;;;;;9.04;62.45;99841.25;1750397;81;21026;-53
2022/04/21 08:41:07;;;;;;;11.35;7.00;;;;;;;9.03;62.38;99840.43;1755220;80;21340;-53
2022/04/21 08:43:34;;;;;;;11.73;6.95;;;;;;;9.06;62.51;99844.58;1756670;80;21052;-53
2022/04/21 08:46:01;;;;;;;10.80;6.47;;;;;;;9.05;62.42;99849.00;1759689;81;21033;-53
2022/04/21 08:48:29;;;;;;;10.40;7.22;;;;;;;9.02;62.31;99846.63;1756548;80;21110;-53
2022/04/21 08:50:56;;;;;;;10.45;6.90;;;;;;;9.03;62.49;99845.68;1757875;79;21054;-52
2022/04/21 08:53:27;;;;;;;11.73;6.90;;;;;;;9.03;62.47;99846.17;1701256;82;21235;-52
2022/04/21 08:55:55;;;;;;;11.57;6.90;;;;;;;9.00;62.40;99849.86;1755984;81;21076;-52
2022/04/21 08:58:21;;;;;;;10.58;6.97;;;;;;;8.98;62.53;99854.87;1752984;81;21122;-53
2022/04/21 09:00:53;;;;;;;10.23;6.95;;;;;;;8.96;62.56;99852.40;1756402;81;21035;-53
2022/04/21 09:03:19;;;;;;;10.35;7.00;;;;;;;8.96;62.55;99850.23;1749890;81;21044;-54
2022/04/21 09:05:48;;;;;;;11.43;6.53;;;;;;;8.96;62.61;99858.11;1753572;80;21567;-52
2022/04/21 09:08:24;;;;;;;10.72;6.15;;;;;;;8.91;62.60;99859.81;1705124;82;22257;-51
2022/04/21 09:11:09;;;;;;;9.63;6.22;;;;;;;8.83;62.90;99860.91;1719195;81;21078;-52
2022/04/21 09:13:39;;;;;;;10.30;6.40;;;;;;;8.76;63.20;99864.97;1751767;79;21075;-51
2022/04/21 09:16:09;;;;;;;10.98;6.37;;;;;;;8.70;63.59;99863.20;1748414;81;21083;-51
2022/04/21 09:18:46;;;;;;;8.20;5.12;;;;;;;8.76;63.62;99863.66;1756174;81;21021;-51
2022/04/21 09:21:16;;;;;;;10.25;6.30;;;;;;;8.83;63.56;99868.30;1757976;81;21020;-53
2022/04/21 09:23:45;;;;;;;9.73;6.00;;;;;;;8.90;63.28;99870.77;1691784;82;21174;-52
2022/04/21 09:26:17;;;;;;;9.15;6.78;;;;;;;8.96;63.21;99864.20;1748474;79;21045;-52
2022/04/21 09:28:54;;;;;;;10.58;6.60;;;;;;;9.00;62.90;99864.30;1751033;81;21134;-52
2022/04/21 09:31:21;;;;;;;11.50;7.55;;;;;;;8.99;62.84;99869.18;1756234;81;21110;-53
2022/04/21 09:33:49;;;;;;;11.22;6.40;;;;;;;8.98;62.85;99869.30;1752177;79;21863;-52
2022/04/21 09:36:17;;;;;;;13.68;8.83;;;;;;;8.95;62.67;99870.41;1721959;81;21081;-52
2022/04/21 09:38:45;;;;;;;12.13;7.50;;;;;;;8.95;62.83;99873.02;1755699;80;21055;-52
2022/04/21 09:41:13;;;;;;;13.48;8.15;;;;;;;8.96;62.82;99870.77;1728441;81;21043;-53
2022/04/21 09:43:42;;;;;;;14.25;7.33;;;;;;;8.95;62.80;99870.41;1755219;81;22576;-52
2022/04/21 09:46:14;;;;;;;11.12;7.65;;;;;;;8.91;62.81;99876.38;1756989;81;21039;-53
2022/04/21 09:48:41;;;;;;;10.15;6.78;;;;;;;8.94;62.91;99870.03;1755047;79;21091;-52
2022/04/21 09:51:15;;;;;;;13.78;7.22;;;;;;;8.98;62.94;99874.55;1753454;81;21032;-53
2022/04/21 09:54:03;;;;;;;8.63;5.58;;;;;;;9.09;62.84;99877.99;1754718;79;21094;-53
2022/04/21 09:56:35;;;;;;;9.38;5.97;;;;;;;9.24;62.89;99881.61;1740385;81;21223;-52
2022/04/21 09:59:04;;;;;;;12.13;5.30;;;;;;;9.39;62.83;99876.89;1751484;81;21560;-53
2022/04/21 10:01:33;;;;;;;8.65;5.08;;;;;;;9.54;62.54;99878.72;1751404;81;21130;-52
2022/04/21 10:03:59;;;;;;;8.13;5.05;;;;;;;9.63;62.42;99885.36;1753580;80;21070;-53
2022/04/21 10:06:26;;;;;;;7.92;5.15;;;;;;;9.71;61.99;99885.18;1753707;81;21061;-52
2022/04/21 10:08:53;;;;;;;7.87;5.28;;;;;;;9.71;61.68;99878.13;1750208;79;21132;-52
2022/04/21 10:11:24;;;;;;;7.45;4.45;;;;;;;9.69;61.37;99883.17;1747295;80;21027;-52
2022/04/21 10:13:56;;;;;;;9.58;5.45;;;;;;;9.64;61.32;99888.31;1748909;80;21031;-53
2022/04/21 10:16:28;;;;;;;8.35;5.35;;;;;;;9.60;61.30;99888.69;1747473;79;21048;-53
2022/04/21 10:18:57;;;;;;;8.75;5.40;;;;;;;9.54;61.48;99890.05;1750284;81;21051;-53
2022/04/21 10:21:48;;;;;;;10.63;5.28;;;;;;;9.55;61.76;99901.37;1749543;80;21112;-53
2022/04/21 10:24:22;;;;;;;10.80;5.83;;;;;;;9.54;61.73;99895.80;1749019;80;21489;-52
2022/04/21 10:26:49;;;;;;;7.62;5.15;;;;;;;9.52;61.68;99905.11;1731842;81;21128;-51
2022/04/21 10:29:27;;;;;;;8.95;5.60;;;;;;;9.52;61.59;99899.86;1737107;81;21041;-52
2022/04/21 10:32:01;;;;;;;7.65;5.17;;;;;;;9.57;61.43;99904.24;1677968;84;21562;-52
2022/04/21 10:34:43;;;;;;;9.15;6.20;;;;;;;9.61;61.52;99912.70;1713066;82;21090;-52
2022/04/21 10:37:14;;;;;;;8.10;5.78;;;;;;;9.66;61.61;99914.45;1669587;85;21617;-52
2022/04/21 10:40:10;;;;;;;8.70;5.05;;;;;;;9.71;61.56;99921.47;1727508;81;21694;-52
2022/04/21 10:42:58;;;;;;;;;;;;;;;9.71;61.53;99916.22;1739629;81;21019;-52
2022/04/21 10:45:27;;;;;;;9.60;5.92;;;;;;;9.72;61.21;99919.20;1730801;81;20148;-52
2022/04/21 10:48:12;;;;;;;8.90;5.40;;;;;;;9.70;61.29;99918.51;1734536;81;22287;-52
2022/04/21 10:50:42;;;;;;;8.58;5.75;;;;;;;9.74;61.23;99919.91;1674757;85;21097;-54
2022/04/21 10:58:47;;;;;;;8.65;5.47;;;;;;;10.00;61.26;99920.34;1727168;81;21579;-52
2022/04/21 11:01:19;;;;;;;8.98;6.25;;;;;;;10.14;60.88;99924.41;1718587;82;21163;-52
2022/04/21 11:04:10;;;;;;;9.10;5.58;;;;;;;10.19;60.42;99932.73;1663674;85;21590;-52
2022/04/21 11:06:48;;;;;;;8.83;5.55;;;;;;;10.16;60.34;99929.05;1716800;81;21032;-52
2022/04/21 11:09:48;;;;;;;8.85;5.70;;;;;;;10.15;60.18;99935.27;1731507;81;21054;-52
2022/04/21 11:12:17;;;;;;;8.93;5.47;;;;;;;10.07;60.02;99929.86;1733595;81;21108;-52
2022/04/21 11:14:46;;;;;;;7.95;5.28;;;;;;;9.95;60.15;99939.61;1673723;85;21084;-52
2022/04/21 11:17:15;;;;;;;8.03;5.40;;;;;;;9.91;60.22;99938.68;1734988;81;21093;-52
2022/04/21 11:19:51;;;;;;;9.43;5.90;;;;;;;9.95;60.25;99937.45;1630151;85;21092;-53
2022/04/21 11:22:40;;;;;;;7.58;4.97;;;;;;;9.98;60.40;99929.30;1738233;81;21085;-52
2022/04/21 11:25:08;;;;;;;8.25;5.30;;;;;;;10.00;60.20;99934.80;1733620;81;21137;-51
2022/04/21 11:27:42;;;;;;;8.83;4.97;;;;;;;9.94;60.33;99941.05;1752939;80;21055;-51
2022/04/21 11:30:14;;;;;;;13.08;6.03;;;;;;;9.88;60.62;99938.44;1741690;80;21043;-52
2022/04/21 11:32:53;;;;;;;9.15;5.28;;;;;;;9.89;60.92;99942.75;1751459;80;21013;-52
2022/04/21 11:35:22;;;;;;;8.75;5.80;;;;;;;9.93;61.49;99945.95;1752117;80;21020;-52
2022/04/21 11:37:59;;;;;;;9.08;5.47;;;;;;;9.99;61.92;99942.32;1744817;80;21051;-51
2022/04/21 11:40:32;;;;;;;9.80;5.78;;;;;;;10.04;61.52;99945.88;1748341;80;21549;-53
2022/04/21 11:43:17;;;;;;;8.43;5.10;;;;;;;10.08;61.12;99944.64;1744511;80;21375;-52
2022/04/21 11:45:59;;;;;;;8.85;5.35;;;;;;;10.16;60.68;99942.69;1752562;80;21060;-51
2022/04/21 11:48:36;;;;;;;7.33;4.05;;;;;;;10.21;60.05;99947.89;1752844;80;21145;-51
2022/04/21 11:51:04;;;;;;;7.20;4.60;;;;;;;10.17;59.77;99949.59;1745173;80;21091;-52
2022/04/21 11:53:35;;;;;;;7.87;4.90;;;;;;;10.13;59.42;99948.20;1740783;80;21246;-52
2022/04/21 11:56:03;;;;;;;8.08;5.03;;;;;;;10.08;59.13;99950.39;1740189;80;21028;-52
2022/04/21 11:58:36;;;;;;;8.43;4.50;;;;;;;10.02;58.64;99949.13;1740403;80;21567;-52
2022/04/21 12:06:46;;;;;;;7.97;3.70;;;;;;;9.84;58.98;99952.33;1741039;80;21244;-52
2022/04/21 12:09:18;;;;;;;6.97;3.50;;;;;;;9.84;59.11;99947.07;1751366;81;21046;-53
2022/04/21 12:11:54;;;;;;;6.42;3.87;;;;;;;9.87;59.16;99951.25;1748308;81;21033;-52
2022/04/21 12:14:21;;;;;;;7.10;3.72;;;;;;;9.96;58.98;99951.77;1749209;80;21027;-52
2022/04/21 12:16:54;;;;;;;5.50;2.80;;;;;;;10.14;58.55;99953.83;1751194;81;21605;-52
2022/04/21 12:19:37;;;;;;;5.87;3.05;;;;;;;10.29;58.31;99949.02;1745043;80;21223;-53
2022/04/21 12:22:09;;;;;;;5.80;3.00;;;;;;;10.43;58.18;99953.16;1741973;80;21554;-54
2022/04/21 12:24:43;;;;;;;6.08;3.30;;;;;;;10.57;57.75;99951.46;1749968;80;21031;-54
2022/04/21 12:27:16;;;;;;;5.47;2.52;;;;;;;10.70;57.71;99947.28;1749688;80;21016;-53
2022/04/21 12:30:05;;;;;;;6.37;3.58;;;;;;;10.81;56.91;99951.59;1750207;80;21072;-52
2022/04/21 12:32:36;;;;;;;5.75;2.90;;;;;;;10.85;56.76;99953.83;1752467;81;21145;-52
2022/04/21 12:35:07;;;;;;;5.55;2.75;;;;;;;10.89;56.25;99955.24;1749797;81;21119;-52